Time;durP1;ratioP1;P1;durP2;ratioP2;P2;SDS_P1;SDS_P2;PMS_P1;PMS_P2;Temp;Humidity;BMP_temperature;BMP_pressure;BME280_temperature;BME280_humidity;BME280_pressure;Samples;Min_cycle;Max_cycle;Signal;HPM_P1;HPM_P2
2022/03/11 00:01:43;;;;;;;;;30.75;29.50;;;;;14.27;45.19;100894.09;5032998;28;45420;-66
2022/03/11 00:04:09;;;;;;;;;30.00;26.25;;;;;14.12;45.18;100867.94;5036651;28;46016;-65
2022/03/11 00:06:35;;;;;;;;;32.75;26.50;;;;;14.27;45.33;100892.28;5021029;28;45293;-66
2022/03/11 00:09:03;;;;;;;;;27.25;25.00;;;;;14.23;45.42;100888.00;5020958;28;45322;-66
2022/03/11 00:11:29;;;;;;;;;30.00;28.00;;;;;14.26;45.35;100898.56;5035872;28;47198;-66
2022/03/11 00:13:54;;;;;;;;;28.00;26.25;;;;;14.23;45.43;100885.31;5050452;28;45921;-66
2022/03/11 00:16:20;;;;;;;;;29.75;27.75;;;;;14.12;45.44;100874.19;5031604;28;45420;-66
2022/03/11 00:18:46;;;;;;;;;34.25;27.00;;;;;14.14;45.57;100871.44;5049839;28;45492;-66
2022/03/11 00:21:12;;;;;;;;;28.50;27.00;;;;;14.21;45.49;100883.63;5029986;28;48146;-66
2022/03/11 00:23:39;;;;;;;;;27.00;26.25;;;;;14.21;45.59;100880.94;5018543;28;45573;-66
2022/03/11 00:26:05;;;;;;;;;26.75;26.25;;;;;14.15;45.57;100868.69;5026874;28;45446;-66
2022/03/11 00:28:30;;;;;;;;;30.50;27.75;;;;;14.05;45.60;100853.94;5026906;28;45387;-66
2022/03/11 00:30:56;;;;;;;;;28.25;25.50;;;;;14.19;45.55;100882.84;5031483;28;47099;-66
2022/03/11 00:33:22;;;;;;;;;26.25;26.25;;;;;14.10;45.57;100865.34;5048249;28;45209;-66
2022/03/11 00:35:48;;;;;;;;;23.25;23.25;;;;;14.07;45.36;100874.38;5040565;28;45665;-66
2022/03/11 00:38:13;;;;;;;;;26.25;24.00;;;;;14.02;45.43;100867.50;5025899;28;45622;-66
2022/03/11 00:40:38;;;;;;;;;28.50;26.25;;;;;13.98;45.71;100866.75;5020626;28;45445;-66
2022/03/11 00:43:04;;;;;;;;;25.50;23.00;;;;;13.81;45.68;100843.31;5022684;28;45242;-66
2022/03/11 00:45:29;;;;;;;;;27.00;25.00;;;;;13.90;45.77;100859.03;5040035;28;45401;-66
2022/03/11 00:47:54;;;;;;;;;25.00;22.00;;;;;13.86;45.52;100854.72;5025331;28;45423;-67
2022/03/11 00:50:22;;;;;;;;;23.00;23.00;;;;;13.88;46.10;100858.25;5023351;28;48606;-65
2022/03/11 00:52:47;;;;;;;;;26.50;25.50;;;;;13.79;45.98;100841.66;5021288;28;45382;-66
2022/03/11 00:55:12;;;;;;;;;26.25;24.50;;;;;13.88;46.09;100854.66;5035821;28;45394;-66
2022/03/11 00:57:38;;;;;;;;;25.50;22.75;;;;;13.78;46.08;100827.41;5031776;28;45529;-66
2022/03/11 01:00:04;;;;;;;;;26.00;22.75;;;;;13.87;46.23;100842.22;5038865;28;45387;-66
2022/03/11 01:02:36;;;;;;;;;27.50;23.00;;;;;13.77;46.17;100827.47;5036034;28;45271;-66
2022/03/11 01:05:06;;;;;;;;;28.75;27.25;;;;;13.84;45.92;100831.59;5020373;28;45318;-66
2022/03/11 01:07:33;;;;;;;;;24.25;24.25;;;;;13.84;46.48;100834.28;5035508;28;45532;-66
2022/03/11 01:09:58;;;;;;;;;23.75;23.75;;;;;13.81;46.31;100831.75;5020117;28;45603;-66
2022/03/11 01:12:24;;;;;;;;;27.25;26.25;;;;;13.80;46.33;100830.88;5023866;28;45324;-66
2022/03/11 01:14:49;;;;;;;;;25.75;21.75;;;;;13.77;46.40;100825.63;5024408;28;45338;-66
2022/03/11 01:17:15;;;;;;;;;23.00;20.50;;;;;13.79;46.22;100825.56;5019321;28;45316;-66
2022/03/11 01:19:40;;;;;;;;;25.00;22.50;;;;;13.76;46.24;100823.88;5019575;28;45395;-66
2022/03/11 01:22:06;;;;;;;;;27.50;27.00;;;;;13.65;46.34;100808.28;5031362;28;45396;-66
2022/03/11 01:24:32;;;;;;;;;25.00;23.25;;;;;13.67;46.25;100822.50;5019895;28;45323;-66
2022/03/11 01:26:57;;;;;;;;;19.50;19.50;;;;;13.70;46.48;100829.53;5022710;28;45414;-66
2022/03/11 01:29:23;;;;;;;;;22.75;20.50;;;;;13.60;46.45;100807.63;5030292;28;46187;-66
2022/03/11 01:31:52;;;;;;;;;25.75;23.00;;;;;13.65;45.91;100813.66;5032645;28;45738;-66
2022/03/11 01:34:18;;;;;;;;;25.75;22.25;;;;;13.60;46.65;100804.94;5028477;28;45169;-66
2022/03/11 01:36:43;;;;;;;;;20.50;20.00;;;;;13.60;46.70;100810.28;5037639;28;45170;-65
2022/03/11 01:39:09;;;;;;;;;21.25;21.25;;;;;13.56;46.64;100797.94;5019618;28;46383;-66
2022/03/11 01:41:35;;;;;;;;;24.00;23.00;;;;;13.61;46.55;100809.34;5019484;28;45268;-66
2022/03/11 01:44:04;;;;;;;;;22.00;19.75;;;;;13.53;46.69;100793.59;5027681;28;45525;-66
2022/03/11 01:46:30;;;;;;;;;22.75;20.00;;;;;13.57;46.65;100793.47;5034355;28;45423;-66
2022/03/11 01:48:57;;;;;;;;;25.75;22.00;;;;;13.53;46.83;100784.66;5019225;28;45296;-66
2022/03/11 01:51:23;;;;;;;;;26.25;23.75;;;;;13.53;46.85;100774.81;5019218;28;45315;-66
2022/03/11 01:53:48;;;;;;;;;25.50;22.25;;;;;13.43;46.86;100762.78;5019027;28;45585;-66
2022/03/11 01:56:14;;;;;;;;;24.75;21.00;;;;;13.52;46.75;100781.13;5032710;28;45169;-66
2022/03/11 01:58:39;;;;;;;;;21.50;21.25;;;;;13.47;46.83;100766.19;5019571;28;45793;-66
2022/03/11 02:01:06;;;;;;;;;22.00;21.00;;;;;13.51;46.71;100781.19;5018900;28;45324;-66
2022/03/11 02:03:32;;;;;;;;;23.25;23.25;;;;;13.38;46.81;100769.25;5019414;28;45438;-66
2022/03/11 02:06:02;;;;;;;;;24.50;22.00;;;;;13.44;46.86;100774.34;5037934;28;45491;-66
2022/03/11 02:08:28;;;;;;;;;18.75;18.75;;;;;13.43;47.16;100775.28;5048655;28;46385;-66
2022/03/11 02:10:55;;;;;;;;;22.25;22.25;;;;;13.34;46.99;100772.06;5022106;28;45244;-66
2022/03/11 02:13:21;;;;;;;;;24.00;23.00;;;;;13.40;47.28;100781.66;5023362;28;45478;-66
2022/03/11 02:15:46;;;;;;;;;25.75;22.50;;;;;13.38;47.07;100790.69;5031624;28;45470;-66
2022/03/11 02:18:11;;;;;;;;;19.75;19.50;;;;;13.30;47.50;100786.53;5046944;28;47299;-66
2022/03/11 02:20:37;;;;;;;;;19.50;19.50;;;;;13.27;47.21;100783.09;5035656;28;45373;-65
2022/03/11 02:23:06;;;;;;;;;22.50;21.00;;;;;13.29;47.43;100787.44;5022952;28;45483;-66
2022/03/11 02:25:32;;;;;;;;;24.00;24.00;;;;;13.31;47.40;100784.69;5035945;28;46130;-66
2022/03/11 02:27:58;;;;;;;;;27.25;22.50;;;;;13.30;47.38;100785.66;5023739;28;47070;-66
2022/03/11 02:30:23;;;;;;;;;16.25;16.25;;;;;13.09;47.77;100748.09;5037533;28;45329;-66
2022/03/11 02:32:49;;;;;;;;;19.25;19.25;;;;;13.31;47.36;100777.56;5032204;28;45301;-66
2022/03/11 02:35:16;;;;;;;;;22.00;20.75;;;;;13.28;47.51;100777.69;5039339;28;45336;-66
2022/03/11 02:37:42;;;;;;;;;23.75;21.25;;;;;13.19;47.67;100766.47;5032984;28;45726;-65
2022/03/11 02:40:08;;;;;;;;;23.00;20.75;;;;;13.13;47.84;100756.88;5037314;28;45875;-65
2022/03/11 02:42:33;;;;;;;;;21.50;20.50;;;;;13.06;47.56;100747.34;5028343;28;45454;-66
2022/03/11 02:45:00;;;;;;;;;22.25;21.00;;;;;13.14;47.82;100762.16;5035854;28;45553;-65
2022/03/11 02:47:26;;;;;;;;;18.75;17.00;;;;;13.14;47.96;100759.47;5030753;28;45375;-66
2022/03/11 02:49:51;;;;;;;;;22.00;21.75;;;;;13.11;47.86;100748.91;5022002;28;45640;-66
2022/03/11 02:52:17;;;;;;;;;17.25;17.25;;;;;13.16;47.64;100754.97;5022309;28;45289;-66
2022/03/11 02:54:42;;;;;;;;;23.75;21.00;;;;;13.06;47.89;100742.84;5026185;28;45506;-65
2022/03/11 02:57:08;;;;;;;;;23.50;18.00;;;;;13.07;47.93;100746.44;5031855;28;45908;-66
2022/03/11 02:59:33;;;;;;;;;24.25;22.25;;;;;13.14;47.94;100754.13;5034014;28;46225;-66
2022/03/11 03:01:59;;;;;;;;;19.25;17.50;;;;;13.17;47.79;100750.47;5032496;28;45420;-66
2022/03/11 03:04:24;;;;;;;;;15.50;14.00;;;;;13.18;48.06;100757.56;5028993;28;45392;-66
2022/03/11 03:06:49;;;;;;;;;22.25;21.50;;;;;13.10;48.34;100741.81;5030953;28;46136;-66
2022/03/11 03:09:14;;;;;;;;;24.50;21.75;;;;;13.16;47.83;100744.22;5021884;28;45259;-65
2022/03/11 03:11:40;;;;;;;;;20.50;17.50;;;;;12.98;48.25;100708.38;5022000;28;45432;-66
2022/03/11 03:14:05;;;;;;;;;18.75;18.00;;;;;13.15;47.97;100720.19;5030609;28;45479;-66
2022/03/11 03:16:31;;;;;;;;;20.00;18.25;;;;;13.17;48.11;100718.28;5026725;28;45338;-66
2022/03/11 03:18:56;;;;;;;;;19.75;17.75;;;;;13.19;48.02;100715.56;5021538;28;45296;-66
2022/03/11 03:21:22;;;;;;;;;21.25;21.25;;;;;13.08;48.09;100698.13;5022036;28;45323;-65
2022/03/11 03:23:47;;;;;;;;;17.00;16.50;;;;;13.16;48.30;100705.81;5025633;28;45505;-66
2022/03/11 03:26:13;;;;;;;;;17.75;17.75;;;;;13.13;48.31;100705.94;5030165;28;45378;-66
2022/03/11 03:28:39;;;;;;;;;19.00;17.50;;;;;13.11;48.34;100703.38;5024379;28;45479;-66
2022/03/11 03:31:04;;;;;;;;;17.25;17.25;;;;;13.13;48.37;100712.19;5026007;28;45383;-66
2022/03/11 03:33:31;;;;;;;;;19.00;18.50;;;;;13.11;48.41;100700.69;5033677;28;45382;-66
2022/03/11 03:35:56;;;;;;;;;18.25;17.00;;;;;13.04;48.49;100706.38;5041137;28;47236;-66
2022/03/11 03:38:21;;;;;;;;;22.75;18.25;;;;;12.93;48.60;100696.09;5025490;28;45379;-66
2022/03/11 03:40:47;;;;;;;;;20.00;18.25;;;;;13.05;48.80;100713.47;5026124;28;45300;-66
2022/03/11 03:43:13;;;;;;;;;17.00;17.00;;;;;13.05;48.46;100717.03;5030830;28;45384;-65
2022/03/11 03:45:40;;;;;;;;;21.00;20.25;;;;;12.98;48.67;100697.66;5029832;28;45952;-66
2022/03/11 03:48:05;;;;;;;;;17.50;16.25;;;;;12.88;48.72;100676.66;5021036;28;45525;-66
2022/03/11 03:50:31;;;;;;;;;21.50;18.00;;;;;13.06;48.74;100716.06;5021442;28;45934;-66
2022/03/11 03:52:56;;;;;;;;;26.50;23.25;;;;;12.97;49.05;100693.22;5021233;28;45431;-66
2022/03/11 03:55:21;;;;;;;;;20.00;18.75;;;;;12.96;48.81;100686.13;5030610;28;46262;-66
2022/03/11 03:57:47;;;;;;;;;20.25;18.50;;;;;12.98;48.79;100686.94;5025082;28;45327;-66
2022/03/11 04:00:13;;;;;;;;;19.75;19.00;;;;;13.02;48.81;100690.34;5021391;28;45382;-66
2022/03/11 04:02:49;;;;;;;;;21.00;17.25;;;;;12.89;48.86;100671.25;5020983;28;45447;-66
2022/03/11 04:05:16;;;;;;;;;19.00;16.25;;;;;12.94;48.96;100690.66;5030465;28;45408;-66
2022/03/11 04:07:43;;;;;;;;;17.75;16.75;;;;;12.83;49.15;100676.88;5022590;28;45666;-66
2022/03/11 04:10:11;;;;;;;;;18.25;18.25;;;;;12.80;49.21;100668.97;5021227;28;45249;-66
2022/03/11 04:12:36;;;;;;;;;17.00;15.75;;;;;12.86;49.24;100682.09;5024677;28;45514;-66
2022/03/11 04:15:02;;;;;;;;;18.25;17.25;;;;;12.85;49.15;100680.38;5029143;28;46298;-66
2022/03/11 04:17:27;;;;;;;;;19.75;18.50;;;;;12.76;49.38;100662.88;5020186;28;45499;-66
2022/03/11 04:19:53;;;;;;;;;21.75;17.75;;;;;12.80;49.37;100666.31;5021096;28;45276;-65
2022/03/11 04:22:18;;;;;;;;;20.50;16.75;;;;;12.83;49.57;100665.28;5032862;28;45378;-66
2022/03/11 04:24:43;;;;;;;;;16.25;15.00;;;;;12.72;49.50;100652.38;5019314;28;48667;-66
2022/03/11 04:27:09;;;;;;;;;21.00;21.00;;;;;12.70;49.51;100652.44;5025543;28;45348;-66
2022/03/11 04:29:36;;;;;;;;;13.00;12.50;;;;;12.82;49.50;100674.28;5020958;28;45465;-66
2022/03/11 04:32:02;;;;;;;;;17.75;16.50;;;;;12.78;49.61;100669.03;5020557;28;45462;-66
2022/03/11 04:34:27;;;;;;;;;18.50;17.00;;;;;12.81;49.55;100681.41;5026104;28;48417;-66
2022/03/11 04:36:53;;;;;;;;;17.75;15.00;;;;;12.69;49.61;100661.38;5035196;28;45486;-65
2022/03/11 04:39:19;;;;;;;;;17.25;16.50;;;;;12.73;49.65;100657.66;5019180;28;45533;-66
2022/03/11 04:41:44;;;;;;;;;17.50;13.50;;;;;12.77;49.77;100669.97;5020549;28;45429;-65
2022/03/11 04:44:10;;;;;;;;;14.50;13.75;;;;;12.75;49.79;100670.97;5036155;28;46661;-66
2022/03/11 04:46:35;;;;;;;;;17.00;16.75;;;;;12.77;49.80;100686.03;5038730;28;45540;-66
2022/03/11 04:49:01;;;;;;;;;16.75;15.75;;;;;12.66;49.80;100668.69;5030475;28;45314;-66
2022/03/11 04:51:26;;;;;;;;;21.50;18.50;;;;;12.76;49.84;100689.66;5020198;28;45470;-66
2022/03/11 04:53:53;;;;;;;;;17.50;17.25;;;;;12.70;49.92;100681.03;5020524;28;45565;-66
2022/03/11 04:56:19;;;;;;;;;18.25;15.25;;;;;12.68;49.75;100666.81;5035198;28;45890;-66
2022/03/11 04:58:44;;;;;;;;;17.25;17.00;;;;;12.71;49.87;100666.69;5026298;28;45466;-66
2022/03/11 05:01:09;;;;;;;;;18.00;14.50;;;;;12.61;49.81;100660.84;5032119;28;45593;-66
2022/03/11 05:03:35;;;;;;;;;17.00;14.50;;;;;12.65;50.31;100672.31;5019731;28;45506;-65
2022/03/11 05:06:00;;;;;;;;;14.75;13.50;;;;;12.58;50.25;100667.22;5041107;28;45287;-66
2022/03/11 05:08:26;;;;;;;;;15.00;15.00;;;;;12.66;50.26;100669.53;5049795;28;45202;-66
2022/03/11 05:10:51;;;;;;;;;19.25;16.75;;;;;12.58;50.20;100661.00;5022942;28;45448;-66
2022/03/11 05:13:17;;;;;;;;;16.75;16.25;;;;;12.66;50.39;100663.31;5031125;28;47317;-66
2022/03/11 05:15:42;;;;;;;;;16.00;16.00;;;;;12.65;50.38;100654.44;5021514;28;45363;-66
2022/03/11 05:18:08;;;;;;;;;18.00;16.75;;;;;12.55;50.41;100637.00;5019906;28;45692;-65
2022/03/11 05:20:35;;;;;;;;;14.50;13.75;;;;;12.62;50.17;100642.97;5019484;28;45395;-66
2022/03/11 05:23:00;;;;;;;;;19.50;18.75;;;;;12.53;50.22;100626.38;5029309;28;46271;-66
2022/03/11 05:25:26;;;;;;;;;16.25;15.00;;;;;12.57;50.31;100641.34;5035214;28;45548;-66
2022/03/11 05:27:52;;;;;;;;;12.75;12.75;;;;;12.54;50.46;100649.50;5023086;28;45304;-66
2022/03/11 05:30:17;;;;;;;;;13.00;13.00;;;;;12.48;50.47;100641.75;5019702;28;45269;-66
2022/03/11 05:32:45;;;;;;;;;13.00;13.00;;;;;12.50;50.64;100647.91;5024328;28;47265;-66
2022/03/11 05:35:11;;;;;;;;;14.75;14.50;;;;;12.46;50.66;100637.38;5032247;28;45574;-65
2022/03/11 05:37:37;;;;;;;;;12.25;12.25;;;;;12.43;50.73;100635.72;5036284;28;45338;-66
2022/03/11 05:40:03;;;;;;;;;14.75;13.25;;;;;12.41;50.78;100626.88;5035943;28;45518;-66
2022/03/11 05:42:28;;;;;;;;;14.25;13.50;;;;;12.36;51.01;100618.16;5027687;28;48686;-66
2022/03/11 05:44:53;;;;;;;;;14.50;13.00;;;;;12.33;50.71;100620.97;5042799;28;45666;-66
2022/03/11 05:47:19;;;;;;;;;15.00;13.25;;;;;12.31;50.92;100618.38;5019647;28;45295;-66
2022/03/11 05:49:44;;;;;;;;;9.75;8.25;;;;;12.29;51.19;100604.16;5022297;28;45510;-66
2022/03/11 05:52:09;;;;;;;;;12.25;12.25;;;;;12.28;50.92;100612.25;5027412;28;47147;-66
2022/03/11 05:54:35;;;;;;;;;12.50;12.50;;;;;12.30;51.05;100621.97;5025272;28;45229;-66
2022/03/11 05:57:01;;;;;;;;;12.50;12.50;;;;;12.25;51.23;100615.94;5036102;28;45557;-66
2022/03/11 05:59:26;;;;;;;;;11.75;9.75;;;;;12.23;51.18;100613.31;5027120;28;45394;-66
2022/03/11 06:01:52;;;;;;;;;11.00;11.00;;;;;12.26;51.58;100619.47;5022918;28;45524;-66
2022/03/11 06:04:17;;;;;;;;;10.50;9.25;;;;;12.25;51.20;100623.09;5036444;28;45437;-66
2022/03/11 06:06:42;;;;;;;;;11.50;9.25;;;;;12.21;51.54;100625.00;5032880;28;45473;-66
2022/03/11 06:09:08;;;;;;;;;12.50;12.00;;;;;12.09;51.49;100604.97;5022914;28;45243;-65
2022/03/11 06:11:34;;;;;;;;;11.25;10.75;;;;;12.12;51.65;100615.56;5023029;28;45243;-65
2022/03/11 06:14:00;;;;;;;;;9.50;9.25;;;;;12.08;51.50;100607.72;5034936;28;45517;-66
2022/03/11 06:16:25;;;;;;;;;13.25;12.50;;;;;12.12;51.11;100623.59;5041529;28;45256;-65
2022/03/11 06:18:51;;;;;;;;;9.25;8.50;;;;;12.14;51.65;100620.84;5058635;28;45227;-66
2022/03/11 06:21:17;;;;;;;;;9.00;9.00;;;;;12.17;51.63;100624.28;5033081;28;45394;-66
2022/03/11 06:23:42;;;;;;;;;12.75;11.25;;;;;12.13;51.56;100619.09;5022293;28;45299;-66
2022/03/11 06:26:07;;;;;;;;;14.25;13.25;;;;;12.15;51.55;100619.94;5024278;28;45280;-66
2022/03/11 06:28:33;;;;;;;;;9.00;9.00;;;;;12.12;51.67;100606.69;5021222;28;45299;-66
2022/03/11 06:30:58;;;;;;;;;13.75;10.50;;;;;12.03;51.74;100592.75;5022314;28;46222;-66
2022/03/11 06:33:24;;;;;;;;;15.50;12.00;;;;;12.11;51.76;100607.59;5022403;28;45388;-65
2022/03/11 06:35:50;;;;;;;;;12.25;11.50;;;;;12.11;51.85;100607.59;5032752;28;45332;-66
2022/03/11 06:38:16;;;;;;;;;10.50;10.50;;;;;12.11;51.94;100607.59;5022110;28;45588;-66
2022/03/11 06:40:42;;;;;;;;;13.25;12.00;;;;;12.01;52.25;100591.94;5021663;28;45496;-66
2022/03/11 06:43:08;;;;;;;;;13.00;10.75;;;;;12.01;52.24;100607.09;5036468;28;45441;-66
2022/03/11 06:45:33;;;;;;;;;8.75;8.25;;;;;11.95;51.88;100599.34;5034713;28;45529;-66
2022/03/11 06:47:59;;;;;;;;;11.50;10.75;;;;;11.99;52.12;100608.97;5021497;28;45407;-66
2022/03/11 06:50:25;;;;;;;;;8.00;8.00;;;;;12.00;52.17;100608.91;5021674;28;46864;-66
2022/03/11 06:52:50;;;;;;;;;11.50;7.50;;;;;11.95;52.00;100605.56;5023676;28;45704;-66
2022/03/11 06:55:16;;;;;;;;;12.50;11.25;;;;;11.93;52.27;100595.84;5033568;28;45170;-66
2022/03/11 06:57:42;;;;;;;;;8.75;8.75;;;;;11.92;52.56;100599.47;5052410;28;45318;-66
2022/03/11 07:00:09;;;;;;;;;9.00;9.00;;;;;11.75;52.51;100566.19;5032029;28;47276;-66
2022/03/11 07:02:36;;;;;;;;;10.75;9.50;;;;;11.87;52.79;100588.91;5024337;28;45295;-62
2022/03/11 07:05:03;;;;;;;;;11.00;9.75;;;;;11.94;52.68;100594.91;5036651;28;47385;-63
2022/03/11 07:07:30;;;;;;;;;9.75;9.75;;;;;11.92;52.60;100586.09;5027773;28;45423;-66
2022/03/11 07:09:55;;;;;;;;;10.25;10.00;;;;;11.80;52.82;100566.88;5022244;28;47219;-65
2022/03/11 07:12:21;;;;;;;;;10.75;8.50;;;;;11.89;52.82;100588.84;5037443;28;45257;-66
2022/03/11 07:14:48;;;;;;;;;8.25;7.50;;;;;11.80;52.65;100580.25;5023252;28;45243;-66
2022/03/11 07:17:14;;;;;;;;;9.25;7.00;;;;;11.83;52.88;100573.94;5025262;28;45337;-65
2022/03/11 07:19:40;;;;;;;;;9.50;7.50;;;;;11.75;52.95;100563.53;5033253;28;45370;-66
2022/03/11 07:22:05;;;;;;;;;10.25;8.25;;;;;11.89;52.74;100573.66;5051198;28;46363;-65
2022/03/11 07:24:31;;;;;;;;;10.00;7.75;;;;;11.86;53.02;100569.31;5040715;28;45534;-66
2022/03/11 07:26:57;;;;;;;;;9.00;8.50;;;;;11.95;53.26;100583.28;5034777;28;45379;-66
2022/03/11 07:29:22;;;;;;;;;8.50;8.50;;;;;11.89;52.82;100573.66;5023235;28;48167;-66
2022/03/11 07:31:48;;;;;;;;;6.50;6.50;;;;;11.92;53.27;100576.25;5024328;28;45605;-65
2022/03/11 07:34:14;;;;;;;;;9.75;7.75;;;;;11.98;52.98;100583.19;5029846;28;45430;-65
2022/03/11 07:36:40;;;;;;;;;6.00;6.00;;;;;11.98;53.30;100576.00;5040455;28;45464;-65
2022/03/11 07:39:07;;;;;;;;;40.50;22.00;;;;;11.93;53.00;100578.00;5039558;28;47069;-65
2022/03/11 07:41:34;;;;;;;;;12.50;11.50;;;;;11.93;53.57;100567.31;5028474;28;45510;-66
2022/03/11 07:43:59;;;;;;;;;12.00;9.75;;;;;11.90;53.21;100563.84;5039160;28;45530;-65
2022/03/11 07:46:27;;;;;;;;;7.00;6.50;;;;;11.80;52.99;100542.81;5021456;28;45215;-66
2022/03/11 07:48:53;;;;;;;;;7.00;5.50;;;;;11.87;53.57;100555.00;5021378;28;47035;-66
2022/03/11 07:51:18;;;;;;;;;6.75;6.00;;;;;11.73;53.32;100521.72;5027211;28;45409;-65
2022/03/11 07:53:44;;;;;;;;;7.75;7.75;;;;;11.91;52.92;100553.13;5025628;28;45787;-65
2022/03/11 07:56:13;;;;;;;;;9.75;8.25;;;;;11.87;53.28;100551.47;5028650;28;45608;-65
2022/03/11 07:58:42;;;;;;;;;7.50;7.00;;;;;11.96;53.43;100550.25;5030176;28;48118;-65
2022/03/11 08:01:12;;;;;;;;;7.75;7.75;;;;;11.95;53.37;100548.53;5022329;28;45930;-66
2022/03/11 08:03:39;;;;;;;;;8.50;4.25;;;;;11.98;53.55;100549.25;5030838;28;45382;-65
2022/03/11 08:06:08;;;;;;;;;9.25;7.75;;;;;11.98;53.42;100541.22;5022285;28;45534;-65
2022/03/11 08:08:38;;;;;;;;;9.75;7.75;;;;;11.96;53.33;100531.50;5022259;28;45883;-66
2022/03/11 08:11:04;;;;;;;;;6.75;6.00;;;;;11.97;53.44;100533.28;5022935;28;45478;-65
2022/03/11 08:13:30;;;;;;;;;6.25;6.25;;;;;11.96;53.28;100529.72;5029829;28;45573;-65
2022/03/11 08:15:55;;;;;;;;;8.25;6.00;;;;;12.01;53.38;100535.75;5024630;28;45765;-65
2022/03/11 08:18:21;;;;;;;;;6.75;6.75;;;;;12.09;53.31;100540.78;5029623;28;45546;-66
2022/03/11 08:20:48;;;;;;;;;5.00;5.00;;;;;12.03;53.52;100531.22;5032440;28;45672;-66
2022/03/11 08:23:13;;;;;;;;;7.00;7.00;;;;;12.00;53.54;100511.75;5037782;28;45831;-65
2022/03/11 08:25:39;;;;;;;;;5.25;5.25;;;;;12.16;53.29;100531.56;5026067;28;45627;-65
2022/03/11 08:28:07;;;;;;;;;6.00;6.00;;;;;12.12;53.37;100526.41;5032873;28;46421;-65
2022/03/11 08:30:33;;;;;;;;;9.00;6.00;;;;;12.13;53.36;100522.78;5037406;28;45676;-65
2022/03/11 08:32:58;;;;;;;;;7.00;6.00;;;;;12.20;53.12;100525.13;5038117;28;45367;-65
2022/03/11 08:35:24;;;;;;;;;7.00;6.00;;;;;12.19;53.34;100515.34;5037026;28;45441;-65
2022/03/11 08:37:50;;;;;;;;;6.25;6.25;;;;;12.09;53.50;100497.09;5037400;28;46190;-66
2022/03/11 08:40:22;;;;;;;;;5.25;5.25;;;;;12.12;53.27;100491.63;5024000;28;45521;-65
2022/03/11 08:42:48;;;;;;;;;7.00;6.00;;;;;12.25;53.18;100508.03;5034792;28;45399;-65
2022/03/11 08:45:13;;;;;;;;;5.00;5.00;;;;;12.23;53.20;100502.75;5028683;28;45400;-65
2022/03/11 08:47:39;;;;;;;;;6.50;6.00;;;;;12.32;53.41;100512.19;5019451;28;45383;-65
2022/03/11 08:50:05;;;;;;;;;9.50;6.25;;;;;12.23;53.20;100489.38;5029653;28;45327;-65
2022/03/11 08:52:31;;;;;;;;;6.50;5.25;;;;;12.37;53.34;100510.16;5039325;28;45498;-65
2022/03/11 08:54:56;;;;;;;;;4.75;4.50;;;;;12.34;53.33;100494.25;5038967;28;45552;-63
2022/03/11 08:57:23;;;;;;;;;5.75;5.25;;;;;12.40;53.42;100499.34;5036890;28;47025;-65
2022/03/11 08:59:48;;;;;;;;;6.00;6.00;;;;;12.43;53.07;100496.53;5034344;28;45855;-65
2022/03/11 09:02:15;;;;;;;;;5.75;5.75;;;;;12.49;53.13;100501.59;5034162;28;45453;-65
2022/03/11 09:04:41;;;;;;;;;5.25;4.00;;;;;12.46;53.05;100477.63;5025263;28;45654;-64
2022/03/11 09:07:07;;;;;;;;;4.50;4.50;;;;;12.49;53.00;100479.31;5017965;28;47281;-64
2022/03/11 09:09:33;;;;;;;;;4.00;4.00;;;;;12.54;53.03;100480.81;5032538;28;45426;-65
2022/03/11 09:11:59;;;;;;;;;6.00;4.00;;;;;12.57;52.91;100472.66;5028381;28;45390;-65
2022/03/11 09:14:25;;;;;;;;;4.00;4.00;;;;;12.57;52.77;100464.63;5043402;28;45316;-66
2022/03/11 09:16:50;;;;;;;;;5.00;4.00;;;;;12.77;53.04;100490.50;5030496;28;46176;-65
2022/03/11 09:19:15;;;;;;;;;6.00;4.00;;;;;12.80;52.63;100481.47;5028355;28;45259;-66
2022/03/11 09:21:41;;;;;;;;;3.00;3.00;;;;;12.86;52.44;100491.88;5026090;28;45540;-66
2022/03/11 09:24:06;;;;;;;;;2.00;2.00;;;;;12.86;52.27;100480.31;5047074;28;45633;-65
2022/03/11 09:26:32;;;;;;;;;4.75;4.50;;;;;12.88;52.62;100483.78;5042179;28;47026;-65
2022/03/11 09:28:57;;;;;;;;;3.75;3.75;;;;;12.93;52.61;100477.28;5023939;28;45391;-65
2022/03/11 09:31:23;;;;;;;;;3.00;3.00;;;;;13.00;52.50;100475.19;5023606;28;45831;-66
2022/03/11 09:33:48;;;;;;;;;4.50;4.25;;;;;13.03;52.28;100468.81;5030393;28;45550;-66
2022/03/11 09:36:14;;;;;;;;;4.00;4.00;;;;;13.10;52.41;100475.63;5021741;28;46384;-65
2022/03/11 09:38:39;;;;;;;;;4.00;4.00;;;;;13.12;52.53;100484.47;5024729;28;45419;-65
2022/03/11 09:41:07;;;;;;;;;3.75;3.75;;;;;13.23;52.48;100486.63;5036920;28;45376;-65
2022/03/11 09:43:35;;;;;;;;;3.75;3.75;;;;;13.30;52.00;100488.09;5035790;28;45364;-66
2022/03/11 09:46:00;;;;;;;;;3.00;3.00;;;;;13.32;51.88;100478.19;5024767;28;45691;-65
2022/03/11 09:48:26;;;;;;;;;2.50;2.50;;;;;13.38;51.84;100472.56;5021612;28;45627;-66
2022/03/11 09:50:51;;;;;;;;;3.00;3.00;;;;;13.42;51.55;100476.81;5023607;28;45452;-65
2022/03/11 09:53:18;;;;;;;;;3.00;3.00;;;;;13.43;51.50;100470.50;5018708;28;45565;-68
2022/03/11 09:55:44;;;;;;;;;2.25;2.25;;;;;13.48;51.46;100473.84;5035287;28;45348;-65
2022/03/11 09:58:09;;;;;;;;;4.00;4.00;;;;;13.52;51.59;100472.72;5037789;28;45454;-65
2022/03/11 10:00:36;;;;;;;;;3.00;3.00;;;;;13.57;51.34;100467.16;5036467;28;45531;-65
2022/03/11 10:03:01;;;;;;;;;3.00;2.25;;;;;13.59;51.35;100459.88;5027353;28;45462;-65
2022/03/11 10:05:50;;;;;;;;;2.75;2.75;;;;;13.65;51.27;100461.41;5018775;28;46201;-65
2022/03/11 10:08:17;;;;;;;;;3.00;3.00;;;;;13.67;51.21;100457.69;5030003;28;45617;-65
2022/03/11 10:10:44;;;;;;;;;4.00;4.00;;;;;13.70;51.00;100427.19;5023384;28;45316;-65
2022/03/11 10:13:11;;;;;;;;;4.50;3.00;;;;;13.76;51.09;100434.03;5019201;28;45498;-65
2022/03/11 10:15:38;;;;;;;;;4.25;3.00;;;;;13.75;51.43;100451.06;5017988;28;46065;-65
2022/03/11 10:18:07;;;;;;;;;2.50;2.50;;;;;13.75;51.44;100441.22;5028438;28;45741;-65
2022/03/11 10:20:32;;;;;;;;;2.75;2.75;;;;;13.73;51.53;100432.38;5018906;28;45914;-64
2022/03/11 10:22:58;;;;;;;;;3.50;3.50;;;;;13.75;51.46;100440.34;5027574;28;45385;-64
2022/03/11 10:25:28;;;;;;;;;4.25;2.50;;;;;13.76;51.73;100439.41;5022200;28;46312;-63
2022/03/11 10:28:01;;;;;;;;;6.75;5.00;;;;;13.80;51.88;100436.50;5026905;28;45455;-64
2022/03/11 10:30:28;;;;;;;;;2.50;2.50;;;;;13.75;51.75;100414.41;5021927;28;45408;-65
2022/03/11 10:32:55;;;;;;;;;3.25;3.00;;;;;13.77;51.59;100414.31;5024377;28;45564;-65
2022/03/11 10:35:30;;;;;;;;;3.50;3.50;;;;;13.92;51.77;100432.31;5038838;28;46377;-64
2022/03/11 10:38:06;;;;;;;;;3.00;3.00;;;;;13.99;51.78;100436.41;5025587;28;45625;-65
2022/03/11 10:40:33;;;;;;;;;3.50;3.00;;;;;14.03;51.81;100439.81;5022586;28;45379;-65
2022/03/11 10:43:29;;;;;;;;;2.50;2.50;;;;;14.07;51.27;100453.00;5036028;28;45690;-65
2022/03/11 10:46:06;;;;;;;;;5.75;5.00;;;;;14.15;51.54;100459.78;5040122;28;46249;-65
2022/03/11 10:48:47;;;;;;;;;4.00;4.00;;;;;14.15;51.57;100446.34;5023395;28;46237;-65
2022/03/11 10:51:26;;;;;;;;;3.25;3.25;;;;;14.23;51.70;100445.03;5026028;28;45315;-65
2022/03/11 10:53:52;;;;;;;;;5.75;4.50;;;;;14.25;51.84;100426.16;5041827;28;45170;-65
2022/03/11 10:56:26;;;;;;;;;3.50;3.00;;;;;14.24;52.21;100422.56;5038119;28;45265;-65
2022/03/11 10:58:52;;;;;;;;;4.00;3.25;;;;;14.29;52.45;100433.09;5030188;28;45391;-65
2022/03/11 11:01:38;;;;;;;;;3.50;3.50;;;;;14.27;52.48;100437.66;5035085;28;45564;-65
2022/03/11 11:04:05;;;;;;;;;5.50;3.50;;;;;14.35;52.75;100451.56;5029476;28;45319;-65
2022/03/11 11:06:30;;;;;;;;;3.25;3.25;;;;;14.37;52.42;100462.22;5025609;28;45659;-65
2022/03/11 11:08:56;;;;;;;;;2.25;2.25;;;;;14.34;52.32;100459.69;5030934;28;45321;-65
2022/03/11 11:11:22;;;;;;;;;3.00;3.00;;;;;14.35;52.62;100450.69;5031776;28;47051;-64